createdAt,value
2023-05-08T00:00:38.949Z,2.80
2023-05-08T00:03:10.654Z,2.80
2023-05-08T00:08:11.945Z,2.60
2023-05-08T00:10:43.659Z,2.80
2023-05-08T00:15:45.223Z,3.20
2023-05-08T00:20:46.610Z,2.70
2023-05-08T00:23:18.154Z,2.70
2023-05-08T00:25:49.969Z,2.90
2023-05-08T00:30:51.030Z,2.60
2023-05-08T00:33:22.524Z,2.60
2023-05-08T00:35:54.281Z,2.70
2023-05-08T00:40:55.490Z,2.40
2023-05-08T00:43:28.586Z,2.30
2023-05-08T00:46:01.396Z,2.70
2023-05-08T00:48:34.203Z,2.80
2023-05-08T00:51:06.237Z,2.70
2023-05-08T00:53:40.646Z,2.50
2023-05-08T00:56:12.857Z,3.30
2023-05-08T00:58:44.305Z,2.40
2023-05-08T01:01:16.163Z,2.50
2023-05-08T01:03:48.106Z,2.60
2023-05-08T01:06:19.927Z,3.40
2023-05-08T01:08:51.459Z,2.60
2023-05-08T01:11:26.487Z,2.70
2023-05-08T01:14:04.631Z,2.50
2023-05-08T01:16:40.405Z,3.30
2023-05-08T01:19:40.528Z,2.70
2023-05-08T01:22:26.478Z,2.80
2023-05-08T01:25:12.976Z,2.50
2023-05-08T01:28:02.316Z,2.50
2023-05-08T01:30:55.705Z,3.00
2023-05-08T01:33:31.169Z,2.60
2023-05-08T01:36:05.735Z,1.90
2023-05-08T01:38:40.464Z,2.00
2023-05-08T01:41:12.381Z,2.30
2023-05-08T01:43:53.907Z,2.60
2023-05-08T01:46:27.202Z,2.10
2023-05-08T01:49:00.897Z,2.60
2023-05-08T01:51:34.387Z,2.80
2023-05-08T01:54:10.108Z,2.80
2023-05-08T01:56:42.176Z,3.10
2023-05-08T02:01:43.777Z,2.30
2023-05-08T02:04:15.393Z,2.20
2023-05-08T02:06:46.816Z,2.70
2023-05-08T02:09:18.388Z,2.70
2023-05-08T02:11:49.913Z,2.40
2023-05-08T02:14:23.412Z,3.00
2023-05-08T02:19:25.115Z,2.70
2023-05-08T02:21:56.749Z,2.80
2023-05-08T02:24:28.467Z,2.40
2023-05-08T02:27:00.106Z,2.50
2023-05-08T02:29:31.633Z,2.60
2023-05-08T02:32:03.408Z,2.60
2023-05-08T02:37:04.767Z,3.30
2023-05-08T02:39:36.308Z,3.00
2023-05-08T02:44:37.933Z,2.90
2023-05-08T02:47:16.125Z,2.60
2023-05-08T02:49:52.188Z,2.30
2023-05-08T02:52:26.805Z,2.80
2023-05-08T02:54:59.939Z,2.90
2023-05-08T02:57:37.810Z,2.60
2023-05-08T03:00:14.006Z,2.70
2023-05-08T03:02:49.360Z,3.00
2023-05-08T03:05:22.081Z,3.00
2023-05-08T03:07:54.569Z,2.90
2023-05-08T03:10:29.815Z,2.50
2023-05-08T03:13:01.617Z,3.00
2023-05-08T03:15:36.523Z,3.00
2023-05-08T03:18:11.882Z,3.30
2023-05-08T03:20:45.034Z,2.30
2023-05-08T03:23:17.033Z,2.90
2023-05-08T03:25:48.461Z,3.30
2023-05-08T03:28:21.751Z,3.30
2023-05-08T03:30:53.413Z,2.70
2023-05-08T03:35:55.054Z,2.90
2023-05-08T03:38:26.635Z,2.90
2023-05-08T03:40:58.140Z,2.80
2023-05-08T03:43:29.828Z,3.20
2023-05-08T03:48:31.354Z,3.20
2023-05-08T03:51:04.548Z,3.10
2023-05-08T03:53:37.485Z,2.90
2023-05-08T03:56:09.718Z,3.00
2023-05-08T04:01:15.573Z,2.70
2023-05-08T04:03:56.661Z,2.60
2023-05-08T04:06:45.905Z,3.30
2023-05-08T04:09:35.401Z,3.30
2023-05-08T04:12:14.398Z,3.30
2023-05-08T04:14:48.447Z,3.30
2023-05-08T04:17:24.049Z,2.80
2023-05-08T04:20:00.433Z,2.70
2023-05-08T04:22:31.942Z,3.60
2023-05-08T04:25:05.466Z,2.80
2023-05-08T04:27:37.318Z,2.90
2023-05-08T04:32:42.248Z,2.70
2023-05-08T04:35:15.498Z,2.50
2023-05-08T04:37:47.468Z,2.50
2023-05-08T04:40:19.525Z,2.80
2023-05-08T04:42:51.156Z,3.60
2023-05-08T04:45:23.548Z,3.30
2023-05-08T04:47:55.882Z,2.80
2023-05-08T04:50:28.101Z,2.60
2023-05-08T04:55:30.384Z,2.40
2023-05-08T04:58:02.243Z,2.90
2023-05-08T05:03:04.013Z,3.50
2023-05-08T05:05:38.684Z,2.90
2023-05-08T05:08:10.562Z,3.20
2023-05-08T05:10:42.954Z,2.50
2023-05-08T05:13:14.765Z,3.30
2023-05-08T05:15:47.267Z,3.10
2023-05-08T05:18:19.734Z,3.70
2023-05-08T05:20:51.182Z,3.40
2023-05-08T05:25:52.701Z,3.40
2023-05-08T05:28:24.330Z,2.80
2023-05-08T05:33:26.255Z,2.40
2023-05-08T05:35:57.736Z,3.00
2023-05-08T05:38:29.163Z,2.80
2023-05-08T05:41:01.113Z,2.80
2023-05-08T05:43:32.625Z,3.40
2023-05-08T05:46:08.295Z,3.60
2023-05-08T05:48:40.004Z,2.60
2023-05-08T05:51:13.068Z,3.30
2023-05-08T05:53:44.919Z,3.40
2023-05-08T05:56:16.570Z,2.90
2023-05-08T05:58:47.969Z,2.80
2023-05-08T06:01:19.503Z,3.10
2023-05-08T06:03:51.140Z,2.90
2023-05-08T06:08:52.664Z,2.70
2023-05-08T06:11:24.152Z,3.40
2023-05-08T06:13:55.899Z,2.80
2023-05-08T06:16:27.549Z,2.90
2023-05-08T06:18:59.055Z,2.50
2023-05-08T06:21:31.049Z,2.90
2023-05-08T06:24:02.470Z,4.00
2023-05-08T06:26:33.984Z,2.80
2023-05-08T06:29:05.537Z,2.80
2023-05-08T06:34:07.167Z,2.70
2023-05-08T06:36:38.781Z,2.80
2023-05-08T06:39:10.381Z,2.70
2023-05-08T06:41:41.937Z,2.70
2023-05-08T06:44:14.003Z,2.30
2023-05-08T06:46:45.655Z,3.50
2023-05-08T06:49:17.465Z,2.40
2023-05-08T06:54:19.106Z,3.30
2023-05-08T06:56:50.734Z,2.50
2023-05-08T06:59:23.509Z,2.70
2023-05-08T07:01:55.390Z,2.30
2023-05-08T07:04:27.032Z,2.60
2023-05-08T07:06:58.661Z,2.70
2023-05-08T07:09:30.518Z,2.90
2023-05-08T07:12:02.516Z,2.40
2023-05-08T07:17:07.818Z,2.70
2023-05-08T07:19:40.092Z,3.10
2023-05-08T07:22:11.700Z,2.60
2023-05-08T07:24:43.247Z,3.00
2023-05-08T07:27:18.528Z,2.70
2023-05-08T07:29:50.098Z,3.20
2023-05-08T07:32:21.579Z,2.70
2023-05-08T07:34:53.088Z,2.50
2023-05-08T07:37:25.409Z,2.60
2023-05-08T07:39:57.341Z,2.70
2023-05-08T07:42:28.759Z,2.40
2023-05-08T07:45:00.459Z,2.60
2023-05-08T07:47:32.712Z,2.40
2023-05-08T07:50:04.753Z,2.80
2023-05-08T07:52:36.621Z,2.60
2023-05-08T07:55:17.645Z,2.10
2023-05-08T07:57:50.004Z,2.80
2023-05-08T08:00:23.306Z,2.50
2023-05-08T08:02:55.373Z,2.60
2023-05-08T08:05:27.737Z,2.50
2023-05-08T08:08:00.351Z,3.30
2023-05-08T08:10:36.781Z,2.20
2023-05-08T08:13:10.048Z,2.70
2023-05-08T08:15:43.916Z,3.00
2023-05-08T08:18:16.302Z,3.50
2023-05-08T08:20:48.886Z,2.60
2023-05-08T08:23:21.236Z,2.90
2023-05-08T08:25:53.891Z,2.40
2023-05-08T08:28:25.687Z,3.10
2023-05-08T08:30:59.331Z,3.70
2023-05-08T08:33:32.757Z,2.50
2023-05-08T08:36:04.350Z,2.90
2023-05-08T08:41:06.442Z,2.70
2023-05-08T08:43:44.243Z,2.60
2023-05-08T08:46:20.632Z,2.70
2023-05-08T08:48:52.983Z,3.10
2023-05-08T08:51:30.971Z,2.40
2023-05-08T08:54:09.650Z,2.70
2023-05-08T08:56:43.384Z,2.20
2023-05-08T08:59:17.427Z,2.80
2023-05-08T09:01:52.850Z,2.70
2023-05-08T09:04:30.042Z,1.90
2023-05-08T09:07:05.771Z,2.40
2023-05-08T09:09:38.263Z,2.20
2023-05-08T09:12:12.107Z,2.10
2023-05-08T09:14:44.405Z,2.30
2023-05-08T09:17:16.385Z,2.60
2023-05-08T09:19:49.599Z,3.20
2023-05-08T09:22:23.404Z,2.30
2023-05-08T09:25:03.607Z,2.60
2023-05-08T09:27:38.002Z,2.20
2023-05-08T09:30:12.189Z,2.20
2023-05-08T09:32:45.490Z,2.40
2023-05-08T09:35:17.643Z,2.20
2023-05-08T09:37:49.643Z,2.70
2023-05-08T09:40:22.364Z,2.70
2023-05-08T09:42:54.067Z,2.50
2023-05-08T09:45:33.011Z,2.20
2023-05-08T09:48:04.615Z,2.20
2023-05-08T09:50:36.072Z,2.70
2023-05-08T09:53:07.758Z,3.40
2023-05-08T09:58:23.327Z,2.20
2023-05-08T10:00:54.989Z,2.60
2023-05-08T10:05:56.907Z,3.00
2023-05-08T10:08:30.175Z,3.30
2023-05-08T10:11:16.625Z,3.20
2023-05-08T10:13:48.607Z,2.70
2023-05-08T10:16:20.509Z,2.30
2023-05-08T10:18:52.429Z,3.40
2023-05-08T10:21:24.314Z,2.90
2023-05-08T10:23:55.958Z,3.60
2023-05-08T10:26:29.154Z,3.20
2023-05-08T10:29:01.316Z,3.00
2023-05-08T10:31:33.168Z,2.40
2023-05-08T10:34:05.488Z,2.40
2023-05-08T10:36:37.204Z,3.00
2023-05-08T10:39:08.893Z,3.10
2023-05-08T10:41:40.698Z,2.50
2023-05-08T10:44:12.393Z,2.00
2023-05-08T10:49:20.312Z,2.60
2023-05-08T10:51:58.040Z,2.80
2023-05-08T10:54:35.542Z,2.50
2023-05-08T10:57:13.986Z,2.20
2023-05-08T10:59:48.110Z,2.20
2023-05-08T11:02:19.582Z,2.60
2023-05-08T11:04:51.044Z,2.00
2023-05-08T11:07:22.509Z,2.50
2023-05-08T11:09:54.527Z,2.10
2023-05-08T11:12:27.381Z,1.70
2023-05-08T11:15:01.998Z,2.10
2023-05-08T11:17:33.537Z,3.30
2023-05-08T11:22:35.295Z,3.40
2023-05-08T11:25:08.960Z,2.70
2023-05-08T11:28:14.652Z,2.40
2023-05-08T11:30:46.765Z,2.10
2023-05-08T11:33:24.796Z,2.20
2023-05-08T11:35:59.984Z,1.90
2023-05-08T11:38:36.264Z,2.20
2023-05-08T11:41:09.298Z,2.00
2023-05-08T11:44:04.799Z,2.80
2023-05-08T11:46:41.695Z,3.90
2023-05-08T11:49:20.222Z,2.80
2023-05-08T11:51:55.639Z,2.40
2023-05-08T11:54:27.074Z,1.90
2023-05-08T11:59:29.147Z,2.00
2023-05-08T12:02:08.373Z,1.70
2023-05-08T12:04:48.162Z,1.90
2023-05-08T12:07:20.842Z,1.90
2023-05-08T12:09:52.497Z,1.90
2023-05-08T12:14:54.142Z,1.70
2023-05-08T12:17:25.830Z,1.80
2023-05-08T12:20:04.324Z,2.00
2023-05-08T12:22:36.242Z,1.90
2023-05-08T12:27:38.900Z,2.20
2023-05-08T12:30:12.280Z,2.10
2023-05-08T12:32:44.763Z,2.50
2023-05-08T12:35:16.562Z,2.80
2023-05-08T12:37:48.346Z,2.70
2023-05-08T12:43:01.721Z,2.00
2023-05-08T12:45:34.735Z,2.60
2023-05-08T12:48:07.083Z,7.10
2023-05-08T12:50:39.427Z,11.40
2023-05-08T12:53:12.077Z,8.10
2023-05-08T12:55:52.050Z,7.80
2023-05-08T12:58:25.771Z,8.30
2023-05-08T13:01:05.370Z,5.50
2023-05-08T13:03:37.350Z,6.40
2023-05-08T13:06:09.206Z,7.90
2023-05-08T13:08:42.115Z,5.70
2023-05-08T13:11:13.684Z,7.20
2023-05-08T13:13:45.237Z,10.20
2023-05-08T13:18:47.410Z,8.40
2023-05-08T13:23:48.674Z,7.60
2023-05-08T13:26:20.101Z,5.60
2023-05-08T13:28:54.005Z,4.60
2023-05-08T13:31:27.226Z,4.80
2023-05-08T13:33:58.922Z,4.40
2023-05-08T13:36:30.437Z,8.30
2023-05-08T13:41:31.851Z,5.70
2023-05-08T13:44:03.263Z,9.10
2023-05-08T13:46:34.844Z,8.50
2023-05-08T13:49:06.894Z,5.90
2023-05-08T13:51:38.434Z,4.90
2023-05-08T13:56:39.914Z,9.00
2023-05-08T13:59:12.635Z,8.00
2023-05-08T14:01:44.318Z,5.90
2023-05-08T14:04:16.049Z,5.60
2023-05-08T14:06:47.623Z,8.20
2023-05-08T14:11:48.909Z,9.20
2023-05-08T14:14:20.254Z,4.50
2023-05-08T14:16:52.328Z,4.30
2023-05-08T14:19:23.686Z,3.80
2023-05-08T14:21:55.260Z,2.70
2023-05-08T14:24:26.686Z,6.60
2023-05-08T14:26:59.685Z,14.50
2023-05-08T14:29:31.200Z,14.50
2023-05-08T14:32:02.684Z,5.50
2023-05-08T14:37:04.239Z,4.80
2023-05-08T14:42:22.153Z,6.70
2023-05-08T14:44:56.061Z,6.20
2023-05-08T14:47:27.626Z,4.60
2023-05-08T14:49:59.117Z,3.60
2023-05-08T14:52:30.955Z,3.70
2023-05-08T14:55:03.581Z,4.10
2023-05-08T14:57:35.772Z,4.30
2023-05-08T15:00:09.475Z,4.00
2023-05-08T15:02:41.211Z,2.80
2023-05-08T15:08:05.781Z,3.20
2023-05-08T15:10:37.209Z,4.80
2023-05-08T15:13:08.764Z,5.40
2023-05-08T15:15:40.462Z,4.30
2023-05-08T15:20:41.759Z,3.00
2023-05-08T15:23:13.357Z,2.90
2023-05-08T15:28:14.963Z,2.80
2023-05-08T15:33:16.122Z,3.20
2023-05-08T15:35:48.073Z,3.30
2023-05-08T15:38:19.454Z,3.20
2023-05-08T15:40:51.045Z,2.90
2023-05-08T15:43:22.766Z,2.70
2023-05-08T15:45:54.800Z,3.10
2023-05-08T15:48:26.690Z,4.40
2023-05-08T15:50:58.731Z,4.90
2023-05-08T15:53:30.792Z,5.00
2023-05-08T15:58:32.425Z,5.10
2023-05-08T16:03:34.893Z,8.00
2023-05-08T16:06:06.999Z,8.20
2023-05-08T16:08:38.648Z,9.50
2023-05-08T16:11:11.428Z,11.40
2023-05-08T16:13:42.838Z,10.20
2023-05-08T16:16:14.571Z,15.50
2023-05-08T16:18:46.033Z,18.50
2023-05-08T16:21:17.557Z,18.60
2023-05-08T16:23:48.985Z,18.90
2023-05-08T16:26:20.694Z,18.70
2023-05-08T16:31:22.457Z,17.70
2023-05-08T16:33:54.071Z,13.50
2023-05-08T16:36:26.958Z,12.50
2023-05-08T16:38:58.408Z,10.40
2023-05-08T16:41:30.299Z,9.70
2023-05-08T16:44:02.107Z,11.10
2023-05-08T16:46:33.637Z,12.50
2023-05-08T16:49:06.163Z,10.30
2023-05-08T16:51:37.625Z,11.40
2023-05-08T16:54:09.200Z,14.80
2023-05-08T16:59:10.738Z,14.70
2023-05-08T17:01:42.271Z,14.80
2023-05-08T17:06:43.694Z,9.90
2023-05-08T17:09:16.764Z,9.90
2023-05-08T17:11:48.553Z,8.60
2023-05-08T17:16:50.707Z,8.20
2023-05-08T17:19:22.135Z,8.30
2023-05-08T17:21:53.508Z,7.70
2023-05-08T17:24:24.864Z,6.90
2023-05-08T17:26:56.917Z,6.60
2023-05-08T17:29:28.574Z,7.70
2023-05-08T17:32:00.102Z,7.70
2023-05-08T17:37:01.672Z,7.30
2023-05-08T17:39:33.567Z,8.10
2023-05-08T17:42:05.995Z,7.40
2023-05-08T17:44:37.528Z,8.20
2023-05-08T17:47:09.451Z,7.50
2023-05-08T17:49:41.157Z,6.80
2023-05-08T17:54:42.380Z,7.80
2023-05-08T17:57:14.016Z,6.10
2023-05-08T17:59:45.599Z,6.00
2023-05-08T18:02:17.013Z,6.00
2023-05-08T18:07:18.878Z,5.70
2023-05-08T18:09:51.081Z,5.60
2023-05-08T18:12:22.684Z,6.90
2023-05-08T18:17:24.380Z,6.60
2023-05-08T18:22:26.664Z,8.40
2023-05-08T18:24:58.410Z,9.30
2023-05-08T18:30:03.963Z,7.80
2023-05-08T18:32:35.620Z,8.30
2023-05-08T18:37:37.124Z,7.60
2023-05-08T18:40:10.433Z,7.00
2023-05-08T18:42:41.922Z,8.10
2023-05-08T18:45:14.816Z,5.70
2023-05-08T18:47:46.398Z,6.50
2023-05-08T18:50:18.124Z,6.40
2023-05-08T18:52:49.723Z,6.60
2023-05-08T18:55:21.410Z,6.20
2023-05-08T19:00:23.437Z,5.80
2023-05-08T19:02:55.095Z,6.20
2023-05-08T19:05:27.056Z,6.10
2023-05-08T19:07:58.670Z,7.70
2023-05-08T19:13:02.836Z,6.10
2023-05-08T19:15:34.266Z,8.10
2023-05-08T19:18:06.023Z,9.00
2023-05-08T19:20:37.643Z,9.00
2023-05-08T19:23:09.128Z,6.70
2023-05-08T19:25:40.873Z,7.70
2023-05-08T19:28:12.222Z,7.20
2023-05-08T19:30:43.662Z,6.10
2023-05-08T19:33:15.783Z,6.40
2023-05-08T19:35:48.320Z,7.00
2023-05-08T19:38:19.632Z,6.00
2023-05-08T19:40:57.132Z,4.90
2023-05-08T19:43:29.495Z,5.70
2023-05-08T19:46:01.628Z,4.40
2023-05-08T19:48:33.281Z,3.70
2023-05-08T19:51:09.917Z,4.30
2023-05-08T19:53:41.443Z,3.50
2023-05-08T19:56:12.847Z,3.40
2023-05-08T19:58:44.235Z,3.40
2023-05-08T20:01:15.748Z,3.10
2023-05-08T20:03:47.303Z,2.30
2023-05-08T20:06:18.867Z,2.60
2023-05-08T20:08:51.193Z,2.90
2023-05-08T20:11:23.437Z,2.80
2023-05-08T20:13:55.225Z,2.90
2023-05-08T20:16:27.091Z,3.40
2023-05-08T20:21:32.558Z,2.80
2023-05-08T20:24:03.908Z,2.80
2023-05-08T20:26:35.553Z,2.70
2023-05-08T20:29:06.877Z,2.50
2023-05-08T20:31:38.559Z,2.40
2023-05-08T20:34:10.315Z,3.00
2023-05-08T20:36:41.948Z,2.70
2023-05-08T20:39:13.286Z,3.20
2023-05-08T20:41:44.730Z,2.30
2023-05-08T20:44:19.344Z,3.10
2023-05-08T20:46:51.536Z,2.30
2023-05-08T20:49:22.999Z,2.00
2023-05-08T20:51:54.513Z,2.20
2023-05-08T20:54:25.909Z,2.40
2023-05-08T20:56:57.473Z,2.80
2023-05-08T20:59:28.854Z,2.40
2023-05-08T21:02:00.176Z,2.30
2023-05-08T21:04:31.538Z,2.40
2023-05-08T21:09:34.528Z,2.80
2023-05-08T21:14:35.832Z,3.10
2023-05-08T21:17:07.407Z,2.60
2023-05-08T21:19:38.960Z,3.90
2023-05-08T21:22:10.419Z,3.20
2023-05-08T21:24:45.221Z,2.50
2023-05-08T21:27:16.665Z,3.10
2023-05-08T21:29:48.001Z,2.70
2023-05-08T21:32:19.502Z,3.00
2023-05-08T21:34:51.032Z,3.00
2023-05-08T21:37:22.431Z,3.00
2023-05-08T21:39:57.436Z,3.20
2023-05-08T21:42:28.892Z,2.80
2023-05-08T21:45:00.404Z,3.30
2023-05-08T21:47:31.860Z,3.20
2023-05-08T21:50:03.407Z,2.80
2023-05-08T21:52:34.762Z,2.50
2023-05-08T21:55:08.931Z,2.80
2023-05-08T21:57:40.498Z,2.80
2023-05-08T22:00:13.922Z,2.90
2023-05-08T22:02:50.937Z,3.70
2023-05-08T22:05:24.390Z,3.20
2023-05-08T22:07:56.052Z,2.70
2023-05-08T22:10:27.312Z,2.90
2023-05-08T22:12:58.834Z,2.90
2023-05-08T22:15:31.092Z,3.00
2023-05-08T22:18:03.145Z,2.70
2023-05-08T22:20:34.810Z,2.90
2023-05-08T22:23:06.602Z,2.70
2023-05-08T22:28:07.996Z,2.80
2023-05-08T22:30:39.436Z,2.60
2023-05-08T22:33:10.836Z,2.90
2023-05-08T22:35:42.277Z,2.90
2023-05-08T22:38:13.773Z,2.00
2023-05-08T22:40:47.936Z,2.70
2023-05-08T22:43:19.466Z,2.70
2023-05-08T22:45:50.850Z,2.80
2023-05-08T22:48:22.149Z,2.50
2023-05-08T22:50:53.519Z,2.20
2023-05-08T22:53:24.939Z,3.50
2023-05-08T22:55:56.294Z,3.30
2023-05-08T22:58:29.400Z,2.70
2023-05-08T23:01:00.839Z,2.30
2023-05-08T23:03:32.284Z,2.40
2023-05-08T23:06:03.581Z,2.90
2023-05-08T23:08:34.953Z,2.40
2023-05-08T23:11:06.517Z,2.90
2023-05-08T23:13:37.896Z,3.60
2023-05-08T23:16:09.675Z,2.70
2023-05-08T23:18:41.521Z,3.00
2023-05-08T23:21:12.977Z,2.70
2023-05-08T23:23:44.273Z,2.70
2023-05-08T23:26:16.152Z,3.00
2023-05-08T23:28:47.462Z,3.00
2023-05-08T23:31:19.817Z,2.60
2023-05-08T23:33:51.442Z,2.70
2023-05-08T23:36:22.787Z,2.40
2023-05-08T23:38:54.571Z,2.90
2023-05-08T23:43:56.384Z,2.90
2023-05-08T23:46:27.792Z,2.90
2023-05-08T23:48:59.108Z,2.60
2023-05-08T23:51:30.510Z,2.60
2023-05-08T23:54:01.992Z,2.70
2023-05-08T23:56:34.026Z,1.90
2023-05-08T23:59:05.582Z,3.30
